createdAt,value
2023-01-29T00:02:26.573Z,4.53
2023-01-29T00:05:27.136Z,4.37
2023-01-29T00:08:16.095Z,4.90
2023-01-29T00:11:03.694Z,4.50
2023-01-29T00:13:51.074Z,4.73
2023-01-29T00:16:38.126Z,4.77
2023-01-29T00:19:24.885Z,4.70
2023-01-29T00:22:11.538Z,5.43
2023-01-29T00:24:59.880Z,5.13
2023-01-29T00:27:46.440Z,4.20
2023-01-29T00:30:33.206Z,4.30
2023-01-29T00:33:19.984Z,4.80
2023-01-29T00:36:08.652Z,4.80
2023-01-29T00:38:59.734Z,5.63
2023-01-29T00:42:04.985Z,4.33
2023-01-29T00:45:00.502Z,5.43
2023-01-29T00:47:47.392Z,5.97
2023-01-29T00:50:34.248Z,4.40
2023-01-29T00:53:21.914Z,5.73
2023-01-29T00:56:09.005Z,5.20
2023-01-29T00:58:57.690Z,5.67
2023-01-29T01:02:01.989Z,3.43
2023-01-29T01:04:48.542Z,5.20
2023-01-29T01:07:35.300Z,5.70
2023-01-29T01:10:25.010Z,5.60
2023-01-29T01:13:13.935Z,5.80
2023-01-29T01:16:03.860Z,5.13
2023-01-29T01:18:51.374Z,5.40
2023-01-29T01:21:39.632Z,6.20
2023-01-29T01:24:26.496Z,6.27
2023-01-29T01:27:13.756Z,6.27
2023-01-29T01:30:00.363Z,6.70
2023-01-29T01:32:48.421Z,5.60
2023-01-29T01:35:34.993Z,6.50
2023-01-29T01:38:21.444Z,6.77
2023-01-29T01:41:08.147Z,6.23
2023-01-29T01:43:57.600Z,4.20
2023-01-29T01:46:43.970Z,6.60
2023-01-29T01:49:32.365Z,6.83
2023-01-29T01:52:20.704Z,6.57
2023-01-29T01:55:09.881Z,7.10
2023-01-29T01:58:04.167Z,7.20
2023-01-29T02:00:51.383Z,6.50
2023-01-29T02:04:01.423Z,5.90
2023-01-29T02:07:08.017Z,7.77
2023-01-29T02:10:01.693Z,7.43
2023-01-29T02:12:49.252Z,8.00
2023-01-29T02:15:35.898Z,6.30
2023-01-29T02:18:23.032Z,7.53
2023-01-29T02:21:25.468Z,7.97
2023-01-29T02:24:48.831Z,7.03
2023-01-29T02:27:58.660Z,4.37
2023-01-29T02:30:54.423Z,7.60
2023-01-29T02:33:50.817Z,7.87
2023-01-29T02:36:45.396Z,8.27
2023-01-29T02:39:37.613Z,8.07
2023-01-29T02:42:29.486Z,8.73
2023-01-29T02:45:23.671Z,8.73
2023-01-29T02:48:20.712Z,9.80
2023-01-29T02:51:14.987Z,9.27
2023-01-29T02:54:08.664Z,9.00
2023-01-29T02:56:59.759Z,9.07
2023-01-29T02:59:51.946Z,9.00
2023-01-29T03:02:47.437Z,7.83
2023-01-29T03:05:43.622Z,9.87
2023-01-29T03:08:43.341Z,9.67
2023-01-29T03:11:36.715Z,9.00
2023-01-29T03:14:50.576Z,8.23
2023-01-29T03:17:43.047Z,8.67
2023-01-29T03:20:35.242Z,9.27
2023-01-29T03:23:27.282Z,10.50
2023-01-29T03:26:33.977Z,9.43
2023-01-29T03:29:39.283Z,9.87
2023-01-29T03:32:29.976Z,9.17
2023-01-29T03:35:33.521Z,7.97
2023-01-29T03:38:21.159Z,8.97
2023-01-29T03:41:15.216Z,9.50
2023-01-29T03:44:11.355Z,8.60
2023-01-29T03:47:07.651Z,9.83
2023-01-29T03:50:00.474Z,9.40
2023-01-29T03:52:57.595Z,9.80
2023-01-29T03:55:55.440Z,10.50
2023-01-29T03:58:48.344Z,11.33
2023-01-29T04:01:43.631Z,9.43
2023-01-29T04:04:33.958Z,10.87
2023-01-29T04:07:24.639Z,10.40
2023-01-29T04:10:26.346Z,11.13
2023-01-29T04:13:15.053Z,10.43
2023-01-29T04:16:07.533Z,10.90
2023-01-29T04:19:09.872Z,11.40
2023-01-29T04:22:05.733Z,8.63
2023-01-29T04:24:52.688Z,9.60
2023-01-29T04:27:46.902Z,9.67
2023-01-29T04:30:43.586Z,7.80
2023-01-29T04:33:35.950Z,10.87
2023-01-29T04:36:32.019Z,9.40
2023-01-29T04:39:23.401Z,10.60
2023-01-29T04:42:20.107Z,10.70
2023-01-29T04:45:19.450Z,10.77
2023-01-29T04:48:17.531Z,9.50
2023-01-29T04:51:12.957Z,12.33
2023-01-29T04:54:07.527Z,10.30
2023-01-29T04:56:58.366Z,10.33
2023-01-29T04:59:49.953Z,7.27
2023-01-29T05:02:41.312Z,9.97
2023-01-29T05:05:29.110Z,9.63
2023-01-29T05:08:20.287Z,10.87
2023-01-29T05:11:07.696Z,11.07
2023-01-29T05:13:55.122Z,10.37
2023-01-29T05:16:45.154Z,11.73
2023-01-29T05:19:33.059Z,10.50
2023-01-29T05:22:22.821Z,10.83
2023-01-29T05:25:23.035Z,11.13
2023-01-29T05:28:16.352Z,12.20
2023-01-29T05:31:03.365Z,10.80
2023-01-29T05:33:50.295Z,10.43
2023-01-29T05:36:38.592Z,10.60
2023-01-29T05:39:25.411Z,9.30
2023-01-29T05:42:12.082Z,11.10
2023-01-29T05:44:58.970Z,11.43
2023-01-29T05:47:46.493Z,10.77
2023-01-29T05:50:33.352Z,12.47
2023-01-29T05:53:21.690Z,10.50
2023-01-29T05:56:08.811Z,13.43
2023-01-29T05:58:56.305Z,11.10
2023-01-29T06:01:42.980Z,12.37
2023-01-29T06:04:29.646Z,11.57
2023-01-29T06:07:16.462Z,12.47
2023-01-29T06:10:04.692Z,12.43
2023-01-29T06:12:51.642Z,11.50
2023-01-29T06:15:40.838Z,11.90
2023-01-29T06:18:27.309Z,11.67
2023-01-29T06:21:14.959Z,11.33
2023-01-29T06:24:01.691Z,11.00
2023-01-29T06:26:49.855Z,10.43
2023-01-29T06:29:36.661Z,11.63
2023-01-29T06:32:23.553Z,10.07
2023-01-29T06:35:10.992Z,10.57
2023-01-29T06:37:57.817Z,11.53
2023-01-29T06:40:44.391Z,11.27
2023-01-29T06:43:32.562Z,12.07
2023-01-29T06:46:19.396Z,11.10
2023-01-29T06:49:06.062Z,11.13
2023-01-29T06:51:52.891Z,10.30
2023-01-29T06:54:39.732Z,11.33
2023-01-29T06:57:26.600Z,10.80
2023-01-29T07:00:17.332Z,12.00
2023-01-29T07:03:04.138Z,12.40
2023-01-29T07:05:53.960Z,11.47
2023-01-29T07:08:41.517Z,10.60
2023-01-29T07:11:28.055Z,10.87
2023-01-29T07:14:15.061Z,13.10
2023-01-29T07:17:03.211Z,12.20
2023-01-29T07:19:49.689Z,12.00
2023-01-29T07:22:36.595Z,12.03
2023-01-29T07:25:23.523Z,13.20
2023-01-29T07:28:10.483Z,11.73
2023-01-29T07:30:58.252Z,12.47
2023-01-29T07:33:46.835Z,11.73
2023-01-29T07:36:33.472Z,12.47
2023-01-29T07:39:20.283Z,12.93
2023-01-29T07:42:07.218Z,12.27
2023-01-29T07:44:53.970Z,10.93
2023-01-29T07:47:40.691Z,11.47
2023-01-29T07:50:29.018Z,10.63
2023-01-29T07:53:16.238Z,10.97
2023-01-29T07:56:03.983Z,12.63
2023-01-29T07:58:50.803Z,11.70
2023-01-29T08:01:37.697Z,11.43
2023-01-29T08:04:24.570Z,11.93
2023-01-29T08:07:12.303Z,12.10
2023-01-29T08:09:59.152Z,12.60
2023-01-29T08:12:45.910Z,11.20
2023-01-29T08:15:33.284Z,12.83
2023-01-29T08:18:24.542Z,12.50
2023-01-29T08:21:13.009Z,13.07
2023-01-29T08:26:53.624Z,14.07
2023-01-29T08:29:40.370Z,12.20
2023-01-29T08:32:27.248Z,10.27
2023-01-29T08:35:13.930Z,11.90
2023-01-29T08:38:03.427Z,12.20
2023-01-29T08:40:51.362Z,13.00
2023-01-29T08:43:41.248Z,12.23
2023-01-29T08:46:30.143Z,12.73
2023-01-29T08:49:19.956Z,11.33
2023-01-29T08:52:10.923Z,12.83
2023-01-29T08:54:59.533Z,12.03
2023-01-29T08:57:48.274Z,13.00
2023-01-29T09:00:35.548Z,12.87
2023-01-29T09:03:26.156Z,12.13
2023-01-29T09:06:15.471Z,12.17
2023-01-29T09:09:02.254Z,12.73
2023-01-29T09:11:48.989Z,12.27
2023-01-29T09:14:39.311Z,12.80
2023-01-29T09:17:31.223Z,11.63
2023-01-29T09:20:29.463Z,12.20
2023-01-29T09:23:17.276Z,12.13
2023-01-29T09:26:04.378Z,13.33
2023-01-29T09:28:50.929Z,9.87
2023-01-29T09:31:39.123Z,12.10
2023-01-29T09:34:27.800Z,12.63
2023-01-29T09:37:17.655Z,10.63
2023-01-29T09:40:05.889Z,11.67
2023-01-29T09:42:58.653Z,11.80
2023-01-29T09:45:54.837Z,10.27
2023-01-29T09:48:44.237Z,12.20
2023-01-29T09:51:35.695Z,11.50
2023-01-29T09:54:25.700Z,12.10
2023-01-29T09:57:20.099Z,10.43
2023-01-29T10:00:11.703Z,10.67
2023-01-29T10:03:12.241Z,11.60
2023-01-29T10:06:11.578Z,11.50
2023-01-29T10:09:29.398Z,10.83
2023-01-29T10:12:32.135Z,11.73
2023-01-29T10:15:30.595Z,12.43
2023-01-29T10:18:45.895Z,11.13
2023-01-29T10:21:45.539Z,12.17
2023-01-29T10:24:38.771Z,11.87
2023-01-29T10:27:32.889Z,11.33
2023-01-29T10:30:28.298Z,12.87
2023-01-29T10:33:20.142Z,11.67
2023-01-29T10:36:14.358Z,11.27
2023-01-29T10:39:02.733Z,12.37
2023-01-29T10:42:18.064Z,12.87
2023-01-29T10:45:16.919Z,11.60
2023-01-29T10:48:27.861Z,11.90
2023-01-29T10:51:27.650Z,12.43
2023-01-29T10:54:37.083Z,12.80
2023-01-29T10:57:41.885Z,11.07
2023-01-29T11:00:31.587Z,12.00
2023-01-29T11:03:27.609Z,11.43
2023-01-29T11:06:20.250Z,12.33
2023-01-29T11:09:12.928Z,11.67
2023-01-29T11:12:04.240Z,12.33
2023-01-29T11:14:55.245Z,12.33
2023-01-29T11:18:02.303Z,12.07
2023-01-29T11:21:01.698Z,12.23
2023-01-29T11:23:48.485Z,7.70
2023-01-29T11:26:39.571Z,10.57
2023-01-29T11:29:38.336Z,9.80
2023-01-29T11:32:30.693Z,11.40
2023-01-29T11:35:24.254Z,8.77
2023-01-29T11:38:20.596Z,12.07
2023-01-29T11:41:16.832Z,10.37
2023-01-29T11:44:04.255Z,10.30
2023-01-29T11:46:52.519Z,11.17
2023-01-29T11:49:41.184Z,9.60
2023-01-29T11:52:36.503Z,11.23
2023-01-29T11:55:25.349Z,9.00
2023-01-29T11:58:18.053Z,10.23
2023-01-29T12:01:05.386Z,10.27
2023-01-29T12:03:55.087Z,9.10
2023-01-29T12:06:45.498Z,10.53
2023-01-29T12:09:32.631Z,8.30
2023-01-29T12:12:30.058Z,8.97
2023-01-29T12:15:25.109Z,6.07
2023-01-29T12:18:17.753Z,10.00
2023-01-29T12:21:11.182Z,9.70
2023-01-29T12:24:02.725Z,9.60
2023-01-29T12:26:54.488Z,8.40
2023-01-29T12:29:48.214Z,9.47
2023-01-29T12:32:44.345Z,9.33
2023-01-29T12:35:36.693Z,9.03
2023-01-29T12:38:26.775Z,8.67
2023-01-29T12:41:27.407Z,9.33
2023-01-29T12:44:20.636Z,6.43
2023-01-29T12:47:16.853Z,7.80
2023-01-29T12:50:07.115Z,8.17
2023-01-29T12:52:57.486Z,8.90
2023-01-29T12:55:47.825Z,9.10
2023-01-29T12:58:37.757Z,8.37
2023-01-29T13:01:31.439Z,8.53
2023-01-29T13:04:24.891Z,7.40
2023-01-29T13:07:17.067Z,7.90
2023-01-29T13:10:10.958Z,8.33
2023-01-29T13:13:02.665Z,8.77
2023-01-29T13:15:49.971Z,8.43
2023-01-29T13:18:45.336Z,8.73
2023-01-29T13:21:39.056Z,8.43
2023-01-29T13:24:28.749Z,7.37
2023-01-29T13:27:23.042Z,8.10
2023-01-29T13:30:26.034Z,7.13
2023-01-29T13:33:22.355Z,8.57
2023-01-29T13:36:17.481Z,8.37
2023-01-29T13:39:08.352Z,10.10
2023-01-29T13:41:57.221Z,4.90
2023-01-29T13:44:49.596Z,9.27
2023-01-29T13:47:40.927Z,8.67
2023-01-29T13:50:35.710Z,9.13
2023-01-29T13:53:26.226Z,9.33
2023-01-29T13:56:31.041Z,9.40
2023-01-29T13:59:26.024Z,9.23
2023-01-29T14:02:24.632Z,8.87
2023-01-29T14:05:44.334Z,9.50
2023-01-29T14:08:40.954Z,8.30
2023-01-29T14:11:36.920Z,10.23
2023-01-29T14:15:02.494Z,9.27
2023-01-29T14:17:59.750Z,8.90
2023-01-29T14:21:03.260Z,9.57
2023-01-29T14:23:52.308Z,8.10
2023-01-29T14:26:45.872Z,9.93
2023-01-29T14:29:40.425Z,8.87
2023-01-29T14:32:27.648Z,8.97
2023-01-29T14:35:20.427Z,10.40
2023-01-29T14:38:08.791Z,9.60
2023-01-29T14:41:08.109Z,9.17
2023-01-29T14:44:28.919Z,10.07
2023-01-29T14:47:20.147Z,8.97
2023-01-29T14:50:40.169Z,8.30
2023-01-29T14:53:42.235Z,9.70
2023-01-29T14:56:34.806Z,11.50
2023-01-29T14:59:26.150Z,9.80
2023-01-29T15:02:18.410Z,11.17
2023-01-29T15:05:09.270Z,11.27
2023-01-29T15:07:59.531Z,10.67
2023-01-29T15:11:13.716Z,11.33
2023-01-29T15:14:07.991Z,10.50
2023-01-29T15:17:03.604Z,11.30
2023-01-29T15:19:50.584Z,11.10
2023-01-29T15:22:44.040Z,10.80
2023-01-29T15:25:36.094Z,10.80
2023-01-29T15:28:24.325Z,11.63
2023-01-29T15:31:15.115Z,10.27
2023-01-29T15:34:07.506Z,6.37
2023-01-29T15:36:54.325Z,9.67
2023-01-29T15:39:45.072Z,13.60
2023-01-29T15:42:44.735Z,12.00
2023-01-29T15:45:34.638Z,8.03
2023-01-29T15:48:26.399Z,9.90
2023-01-29T15:51:18.793Z,13.20
2023-01-29T15:54:10.911Z,12.83
2023-01-29T15:56:58.159Z,10.93
2023-01-29T15:59:46.513Z,17.77
2023-01-29T16:02:42.237Z,14.63
2023-01-29T16:05:33.184Z,11.20
2023-01-29T16:08:20.388Z,11.57
2023-01-29T16:11:08.576Z,12.53
2023-01-29T16:13:55.341Z,11.50
2023-01-29T16:16:45.199Z,13.03
2023-01-29T16:19:33.645Z,12.70
2023-01-29T16:22:21.332Z,14.17
2023-01-29T16:25:13.687Z,12.77
2023-01-29T16:28:04.278Z,11.37
2023-01-29T16:30:57.898Z,7.93
2023-01-29T16:33:45.513Z,12.87
2023-01-29T16:36:34.942Z,12.27
2023-01-29T16:39:26.022Z,13.13
2023-01-29T16:42:32.583Z,13.30
2023-01-29T16:45:30.721Z,11.93
2023-01-29T16:48:28.723Z,13.63
2023-01-29T16:51:22.137Z,12.23
2023-01-29T16:54:16.246Z,13.50
2023-01-29T16:57:03.433Z,11.27
2023-01-29T16:59:53.532Z,14.00
2023-01-29T17:02:41.103Z,13.00
2023-01-29T17:05:30.562Z,13.23
2023-01-29T17:08:25.940Z,12.47
2023-01-29T17:11:24.340Z,11.30
2023-01-29T17:14:11.401Z,13.47
2023-01-29T17:17:03.912Z,9.33
2023-01-29T17:19:50.417Z,13.53
2023-01-29T17:22:38.099Z,12.37
2023-01-29T17:25:25.120Z,12.97
2023-01-29T17:28:15.319Z,14.03
2023-01-29T17:31:10.843Z,13.23
2023-01-29T17:33:57.705Z,12.60
2023-01-29T17:36:45.778Z,14.10
2023-01-29T17:39:32.682Z,13.43
2023-01-29T17:42:19.948Z,9.97
2023-01-29T17:45:09.013Z,11.50
2023-01-29T17:47:55.681Z,11.13
2023-01-29T17:50:48.813Z,11.90
2023-01-29T17:53:45.167Z,10.43
2023-01-29T17:56:32.623Z,11.80
2023-01-29T17:59:21.712Z,11.37
2023-01-29T18:02:09.785Z,11.17
2023-01-29T18:05:20.253Z,10.30
2023-01-29T18:08:07.403Z,12.00
2023-01-29T18:10:54.106Z,10.13
2023-01-29T18:13:42.012Z,7.50
2023-01-29T18:16:29.392Z,10.77
2023-01-29T18:19:22.100Z,10.23
2023-01-29T18:22:09.327Z,9.40
2023-01-29T18:24:55.757Z,9.50
2023-01-29T18:27:42.400Z,8.97
2023-01-29T18:30:29.361Z,10.93
2023-01-29T18:33:17.442Z,11.97
2023-01-29T18:36:06.836Z,8.73
2023-01-29T18:38:53.682Z,9.60
2023-01-29T18:41:40.533Z,9.50
2023-01-29T18:44:29.751Z,10.10
2023-01-29T18:47:16.897Z,9.87
2023-01-29T18:50:03.392Z,7.40
2023-01-29T18:52:52.041Z,7.33
2023-01-29T18:55:38.735Z,9.63
2023-01-29T18:58:36.003Z,9.80
2023-01-29T19:01:23.387Z,10.20
2023-01-29T19:04:09.774Z,9.53
2023-01-29T19:06:56.642Z,9.37
2023-01-29T19:09:46.584Z,9.50
2023-01-29T19:12:33.839Z,8.83
2023-01-29T19:15:20.713Z,9.50
2023-01-29T19:18:07.579Z,9.87
2023-01-29T19:20:54.771Z,9.97
2023-01-29T19:23:42.784Z,9.73
2023-01-29T19:26:34.047Z,9.00
2023-01-29T19:29:20.973Z,10.20
2023-01-29T19:32:09.314Z,9.53
2023-01-29T19:34:58.096Z,8.50
2023-01-29T19:37:46.511Z,6.27
2023-01-29T19:40:33.844Z,7.77
2023-01-29T19:43:22.455Z,9.60
2023-01-29T19:46:09.698Z,7.63
2023-01-29T19:48:59.318Z,6.37
2023-01-29T19:51:46.448Z,7.70
2023-01-29T19:54:33.108Z,9.60
2023-01-29T19:57:20.025Z,9.07
2023-01-29T20:00:11.062Z,6.13
2023-01-29T20:02:57.867Z,8.90
2023-01-29T20:05:44.563Z,8.33
2023-01-29T20:08:31.683Z,2.87
2023-01-29T20:11:20.849Z,6.20
2023-01-29T20:14:07.730Z,8.83
2023-01-29T20:16:55.784Z,8.77
2023-01-29T20:19:42.546Z,8.20
2023-01-29T20:22:29.236Z,9.23
2023-01-29T20:25:17.853Z,9.03
2023-01-29T20:28:06.106Z,8.93
2023-01-29T20:30:55.527Z,7.90
2023-01-29T20:33:44.385Z,7.30
2023-01-29T20:36:31.289Z,8.67
2023-01-29T20:39:18.004Z,8.73
2023-01-29T20:42:05.042Z,8.80
2023-01-29T20:44:51.581Z,7.53
2023-01-29T20:47:38.177Z,7.60
2023-01-29T20:50:26.340Z,7.67
2023-01-29T20:53:13.102Z,6.33
2023-01-29T20:55:59.917Z,7.73
2023-01-29T20:58:47.242Z,7.80
2023-01-29T21:01:34.093Z,7.87
2023-01-29T21:04:21.075Z,8.87
2023-01-29T21:07:08.971Z,7.70
2023-01-29T21:09:55.475Z,6.67
2023-01-29T21:12:42.323Z,6.40
2023-01-29T21:15:29.113Z,6.37
2023-01-29T21:18:15.951Z,7.30
2023-01-29T21:21:02.968Z,7.67
2023-01-29T21:23:51.069Z,7.87
2023-01-29T21:26:39.265Z,6.23
2023-01-29T21:29:25.755Z,6.40
2023-01-29T21:32:12.638Z,7.43
2023-01-29T21:34:59.423Z,8.50
2023-01-29T21:37:47.039Z,7.57
2023-01-29T21:40:35.510Z,8.43
2023-01-29T21:43:21.898Z,4.90
2023-01-29T21:46:12.066Z,7.03
2023-01-29T21:48:58.941Z,7.10
2023-01-29T21:51:45.829Z,7.73
2023-01-29T21:54:41.648Z,7.47
2023-01-29T21:57:30.497Z,4.70
2023-01-29T22:00:18.261Z,7.70
2023-01-29T22:03:05.368Z,8.10
2023-01-29T22:05:55.788Z,4.10
2023-01-29T22:08:43.598Z,7.07
2023-01-29T22:11:30.344Z,6.03
2023-01-29T22:14:19.670Z,6.30
2023-01-29T22:17:06.687Z,4.93
2023-01-29T22:19:53.578Z,7.47
2023-01-29T22:22:40.018Z,7.77
2023-01-29T22:25:27.932Z,7.83
2023-01-29T22:28:15.835Z,7.37
2023-01-29T22:31:04.514Z,6.77
2023-01-29T22:33:53.293Z,4.27
2023-01-29T22:36:40.270Z,7.30
2023-01-29T22:39:26.833Z,5.90
2023-01-29T22:42:13.555Z,8.17
2023-01-29T22:45:00.266Z,6.93
2023-01-29T22:47:48.485Z,5.90
2023-01-29T22:50:35.187Z,4.77
2023-01-29T22:53:21.957Z,7.47
2023-01-29T22:56:09.471Z,7.33
2023-01-29T22:58:57.260Z,7.10
2023-01-29T23:01:43.697Z,6.03
2023-01-29T23:04:32.012Z,6.50
2023-01-29T23:07:18.701Z,6.00
2023-01-29T23:10:06.991Z,6.90
2023-01-29T23:12:53.660Z,6.23
2023-01-29T23:15:40.747Z,6.63
2023-01-29T23:18:27.450Z,6.73
2023-01-29T23:21:15.522Z,6.37
2023-01-29T23:24:02.370Z,6.43
2023-01-29T23:27:06.501Z,3.97
2023-01-29T23:29:53.035Z,6.33
2023-01-29T23:32:39.597Z,5.23
2023-01-29T23:35:26.477Z,7.40
2023-01-29T23:38:14.579Z,6.23
2023-01-29T23:41:01.435Z,4.67
2023-01-29T23:43:48.078Z,5.83
2023-01-29T23:46:35.052Z,5.80
2023-01-29T23:49:24.102Z,6.83
2023-01-29T23:52:11.077Z,6.20
2023-01-29T23:54:59.246Z,7.43
2023-01-29T23:57:48.134Z,4.90
